McClave, Colorado
Current Conditions -  °F | °C
As of 11:53 PM on Tuesday 21 Oct 2014 (Local Time) from KLAA Reporting Station
Clear Clear  
Wind Chill: 61°   Ceiling: Unl
Heat Index: 61°   Visibility: 10mi
Dew Point: 48°   Wind: 18mph
Humidity: 62%   Direction: 180°S
Pressure: 29.92"   Gusts: 26mph
Location:  38.14°N, 102.85°W
Report Text: KLAA 220553Z AUTO 18016G23KT 10SM CLR 16/09 A2992 RMK AO2 SLP088 T01610089 10228 20161 50000
Loading
Personal Weather Stations






























Interactive Weather Map
Tropical Storm Tracking
New forecast layout! Learn more

10-Day Weather Forecast

Advertisements
Track Severe Weather on mobile